createdAt,value
2022-08-27T00:01:48.998Z,22.70
2022-08-27T00:04:16.351Z,22.70
2022-08-27T00:06:43.643Z,22.80
2022-08-27T00:09:13.731Z,22.80
2022-08-27T00:11:41.127Z,22.80
2022-08-27T00:14:08.983Z,22.80
2022-08-27T00:16:36.462Z,23.00
2022-08-27T00:19:04.292Z,22.80
2022-08-27T00:21:33.080Z,22.80
2022-08-27T00:24:01.236Z,22.80
2022-08-27T00:26:29.159Z,22.80
2022-08-27T00:28:56.791Z,22.80
2022-08-27T00:31:27.167Z,22.70
2022-08-27T00:33:55.776Z,22.80
2022-08-27T00:36:23.863Z,22.80
2022-08-27T00:38:52.086Z,22.80
2022-08-27T00:41:22.387Z,22.80
2022-08-27T00:43:56.875Z,22.80
2022-08-27T00:46:42.348Z,22.90
2022-08-27T00:49:20.655Z,22.90
2022-08-27T00:52:09.240Z,22.90
2022-08-27T00:54:36.287Z,22.90
2022-08-27T00:57:04.784Z,22.90
2022-08-27T00:59:33.007Z,22.90
2022-08-27T01:02:19.443Z,22.90
2022-08-27T01:04:59.410Z,22.90
2022-08-27T01:07:30.014Z,22.90
2022-08-27T01:10:00.550Z,22.90
2022-08-27T01:12:31.220Z,22.90
2022-08-27T01:14:58.468Z,22.90
2022-08-27T01:17:25.947Z,22.70
2022-08-27T01:19:58.713Z,22.90
2022-08-27T01:22:39.566Z,23.00
2022-08-27T01:25:11.266Z,23.00
2022-08-27T01:27:39.560Z,23.00
2022-08-27T01:30:10.475Z,23.00
2022-08-27T01:32:38.752Z,23.00
2022-08-27T01:35:09.107Z,23.10
2022-08-27T01:37:37.977Z,23.10
2022-08-27T01:40:08.236Z,23.10
2022-08-27T01:42:40.060Z,23.10
2022-08-27T01:45:19.822Z,23.10
2022-08-27T01:47:48.296Z,23.20
2022-08-27T01:50:23.099Z,23.20
2022-08-27T01:52:51.785Z,23.20
2022-08-27T01:55:25.465Z,23.30
2022-08-27T01:57:55.326Z,23.20
2022-08-27T02:00:30.304Z,23.20
2022-08-27T02:02:58.853Z,23.30
2022-08-27T02:05:28.937Z,23.30
2022-08-27T02:07:57.044Z,23.50
2022-08-27T02:10:31.231Z,23.30
2022-08-27T02:12:58.496Z,23.30
2022-08-27T02:15:28.670Z,23.30
2022-08-27T02:17:56.317Z,23.50
2022-08-27T02:20:23.751Z,23.40
2022-08-27T02:22:55.677Z,23.40
2022-08-27T02:25:23.127Z,23.50
2022-08-27T02:27:51.428Z,23.50
2022-08-27T02:30:24.099Z,23.50
2022-08-27T02:32:53.139Z,23.60
2022-08-27T02:35:23.497Z,23.50
2022-08-27T02:37:51.478Z,23.50
2022-08-27T02:40:21.999Z,23.50
2022-08-27T02:42:49.872Z,23.50
2022-08-27T02:45:18.368Z,23.50
2022-08-27T02:47:45.380Z,23.60
2022-08-27T02:50:13.713Z,23.60
2022-08-27T02:52:41.739Z,23.60
2022-08-27T02:55:09.222Z,23.60
2022-08-27T02:57:37.544Z,23.60
2022-08-27T03:00:08.875Z,23.60
2022-08-27T03:02:37.072Z,23.60
2022-08-27T03:05:06.617Z,23.60
2022-08-27T03:07:33.858Z,23.60
2022-08-27T03:10:00.909Z,23.60
2022-08-27T03:12:27.884Z,23.60
2022-08-27T03:14:55.072Z,23.60
2022-08-27T03:17:40.714Z,23.60
2022-08-27T03:20:11.088Z,23.50
2022-08-27T03:22:40.140Z,23.50
2022-08-27T03:25:08.571Z,23.60
2022-08-27T03:27:35.708Z,23.50
2022-08-27T03:30:11.090Z,23.60
2022-08-27T03:32:39.145Z,23.60
2022-08-27T03:35:06.815Z,23.60
2022-08-27T03:37:34.482Z,23.60
2022-08-27T03:40:01.850Z,23.60
2022-08-27T03:42:29.180Z,23.60
2022-08-27T03:44:56.251Z,23.60
2022-08-27T03:47:24.133Z,23.60
2022-08-27T03:49:51.339Z,23.60
2022-08-27T03:52:19.217Z,23.60
2022-08-27T03:54:46.667Z,23.70
2022-08-27T03:57:13.652Z,23.70
2022-08-27T03:59:40.592Z,23.70
2022-08-27T04:02:08.787Z,23.70
2022-08-27T04:04:35.908Z,23.70
2022-08-27T04:07:03.243Z,23.70
2022-08-27T04:09:30.403Z,24.00
2022-08-27T04:11:57.420Z,23.70
2022-08-27T04:14:27.393Z,23.70
2022-08-27T04:16:56.709Z,23.80
2022-08-27T04:19:27.987Z,23.70
2022-08-27T04:22:04.485Z,23.70
2022-08-27T04:24:34.393Z,23.80
2022-08-27T04:27:02.668Z,23.80
2022-08-27T04:29:29.965Z,23.80
2022-08-27T04:31:57.740Z,23.80
2022-08-27T04:34:25.441Z,23.80
2022-08-27T04:36:56.775Z,23.80
2022-08-27T04:39:26.507Z,23.80
2022-08-27T04:41:56.660Z,23.90
2022-08-27T04:44:26.011Z,23.80
2022-08-27T04:47:03.616Z,23.80
2022-08-27T04:49:31.319Z,23.80
2022-08-27T04:52:01.800Z,23.70
2022-08-27T04:54:32.319Z,23.80
2022-08-27T04:57:04.884Z,23.80
2022-08-27T04:59:33.040Z,23.80
2022-08-27T05:02:04.601Z,23.70
2022-08-27T05:04:35.390Z,23.70
2022-08-27T05:07:02.294Z,23.70
2022-08-27T05:09:29.578Z,23.70
2022-08-27T05:11:56.735Z,23.70
2022-08-27T05:14:25.341Z,23.70
2022-08-27T05:16:52.370Z,23.70
2022-08-27T05:19:19.310Z,23.70
2022-08-27T05:21:49.404Z,23.80
2022-08-27T05:24:18.436Z,23.70
2022-08-27T05:26:47.102Z,23.70
2022-08-27T05:29:14.663Z,23.80
2022-08-27T05:31:43.328Z,23.80
2022-08-27T05:34:15.401Z,23.80
2022-08-27T05:36:49.428Z,23.80
2022-08-27T05:39:17.270Z,23.80
2022-08-27T05:41:44.276Z,23.80
2022-08-27T05:44:39.490Z,23.90
2022-08-27T05:46:58.874Z,23.70
2022-08-27T05:49:25.984Z,23.90
2022-08-27T05:51:52.990Z,23.90
2022-08-27T05:54:20.191Z,23.90
2022-08-27T05:56:49.771Z,24.00
2022-08-27T05:59:36.859Z,24.00
2022-08-27T06:02:05.983Z,24.00
2022-08-27T06:04:32.998Z,24.00
2022-08-27T06:07:00.376Z,24.10
2022-08-27T06:09:29.329Z,24.10
2022-08-27T06:11:58.291Z,24.10
2022-08-27T06:14:26.544Z,24.20
2022-08-27T06:16:53.770Z,24.20
2022-08-27T06:19:21.237Z,24.20
2022-08-27T06:22:00.123Z,24.20
2022-08-27T06:24:29.435Z,24.30
2022-08-27T06:26:57.434Z,24.40
2022-08-27T06:29:25.102Z,24.40
2022-08-27T06:31:53.056Z,24.50
2022-08-27T06:34:20.091Z,24.50
2022-08-27T06:36:47.135Z,24.50
2022-08-27T06:39:15.553Z,24.60
2022-08-27T06:42:13.602Z,24.80
2022-08-27T06:44:41.467Z,24.80
2022-08-27T06:47:08.502Z,24.70
2022-08-27T06:49:35.504Z,24.80
2022-08-27T06:52:02.615Z,24.80
2022-08-27T06:54:29.606Z,24.80
2022-08-27T06:57:00.378Z,24.90
2022-08-27T06:59:27.766Z,24.90
2022-08-27T07:01:54.758Z,25.00
2022-08-27T07:04:32.734Z,25.00
2022-08-27T07:07:02.328Z,25.00
2022-08-27T07:09:32.071Z,24.90
2022-08-27T07:12:00.137Z,25.10
2022-08-27T07:14:27.743Z,25.10
2022-08-27T07:16:55.425Z,25.10
2022-08-27T07:19:28.560Z,25.20
2022-08-27T07:21:56.308Z,25.20
2022-08-27T07:24:24.547Z,25.20
2022-08-27T07:26:51.420Z,25.20
2022-08-27T07:29:19.125Z,25.30
2022-08-27T07:31:46.087Z,25.30
2022-08-27T07:34:13.101Z,25.30
2022-08-27T07:36:41.205Z,25.30
2022-08-27T07:39:09.188Z,25.40
2022-08-27T07:41:57.014Z,25.50
2022-08-27T07:44:26.181Z,25.40
2022-08-27T07:46:58.882Z,25.50
2022-08-27T07:49:28.586Z,25.60
2022-08-27T07:51:55.959Z,25.50
2022-08-27T07:54:23.695Z,25.50
2022-08-27T07:56:55.299Z,25.70
2022-08-27T07:59:25.114Z,25.70
2022-08-27T08:01:56.514Z,25.80
2022-08-27T08:04:24.414Z,25.80
2022-08-27T08:06:52.136Z,25.90
2022-08-27T08:09:22.450Z,25.90
2022-08-27T08:11:51.471Z,25.90
2022-08-27T08:14:19.340Z,26.00
2022-08-27T08:16:46.542Z,26.00
2022-08-27T08:19:14.053Z,26.00
2022-08-27T08:21:41.516Z,26.10
2022-08-27T08:24:09.140Z,26.10
2022-08-27T08:26:36.063Z,26.10
2022-08-27T08:29:05.329Z,26.20
2022-08-27T08:31:32.789Z,26.20
2022-08-27T08:34:00.229Z,26.30
2022-08-27T08:36:27.488Z,26.20
2022-08-27T08:38:55.467Z,26.30
2022-08-27T08:41:31.071Z,26.30
2022-08-27T08:44:05.315Z,26.30
2022-08-27T08:46:58.754Z,26.30
2022-08-27T08:49:30.855Z,26.40
2022-08-27T08:52:09.892Z,26.40
2022-08-27T08:54:38.663Z,26.40
2022-08-27T08:57:28.642Z,26.30
2022-08-27T09:00:14.012Z,26.40
2022-08-27T09:02:50.366Z,26.40
2022-08-27T09:05:17.646Z,26.40
2022-08-27T09:08:32.936Z,26.50
2022-08-27T09:11:29.170Z,26.50
2022-08-27T09:14:10.342Z,26.70
2022-08-27T09:16:40.278Z,26.70
2022-08-27T09:19:07.436Z,26.90
2022-08-27T09:21:52.364Z,26.90
2022-08-27T09:24:53.161Z,27.00
2022-08-27T09:27:23.120Z,27.10
2022-08-27T09:29:53.999Z,27.30
2022-08-27T09:32:33.292Z,27.40
2022-08-27T09:35:05.191Z,27.40
2022-08-27T09:37:41.213Z,27.50
2022-08-27T09:40:22.719Z,27.50
2022-08-27T09:42:56.660Z,27.50
2022-08-27T09:45:29.971Z,27.60
2022-08-27T09:48:13.833Z,27.60
2022-08-27T09:50:55.070Z,27.60
2022-08-27T09:53:31.245Z,27.60
2022-08-27T09:56:04.474Z,27.60
2022-08-27T09:59:08.003Z,27.70
2022-08-27T10:02:16.623Z,27.70
2022-08-27T10:05:01.002Z,27.70
2022-08-27T10:07:53.905Z,27.70
2022-08-27T10:10:40.734Z,27.80
2022-08-27T10:13:27.921Z,27.90
2022-08-27T10:16:34.894Z,27.90
2022-08-27T10:19:40.391Z,27.90
2022-08-27T10:22:32.966Z,27.90
2022-08-27T10:25:47.158Z,27.90
2022-08-27T10:28:50.754Z,27.90
2022-08-27T10:31:43.957Z,28.00
2022-08-27T10:34:43.579Z,28.00
2022-08-27T10:38:01.925Z,28.00
2022-08-27T10:40:34.910Z,28.00
2022-08-27T10:43:23.551Z,28.10
2022-08-27T10:46:06.101Z,28.20
2022-08-27T10:48:45.852Z,28.20
2022-08-27T10:51:22.169Z,28.20
2022-08-27T10:54:22.434Z,28.30
2022-08-27T10:57:53.863Z,28.40
2022-08-27T11:00:23.644Z,28.40
2022-08-27T11:03:13.792Z,28.50
2022-08-27T11:05:50.401Z,28.50
2022-08-27T11:08:37.496Z,28.50
2022-08-27T11:12:10.298Z,28.50
2022-08-27T11:14:30.529Z,28.60
2022-08-27T11:17:06.858Z,28.70
2022-08-27T11:19:39.308Z,28.90
2022-08-27T11:22:26.662Z,29.00
2022-08-27T11:25:40.093Z,29.20
2022-08-27T11:28:09.214Z,29.40
2022-08-27T11:30:56.454Z,29.50
2022-08-27T11:33:32.145Z,29.70
2022-08-27T11:36:32.960Z,29.80
2022-08-27T11:39:28.284Z,30.00
2022-08-27T11:42:28.607Z,30.20
2022-08-27T11:45:08.267Z,30.30
2022-08-27T11:47:35.563Z,30.50
2022-08-27T11:50:17.319Z,30.60
2022-08-27T11:53:05.796Z,30.70
2022-08-27T11:55:39.472Z,30.90
2022-08-27T11:58:18.538Z,30.80
2022-08-27T12:00:48.505Z,31.20
2022-08-27T12:03:19.765Z,31.40
2022-08-27T12:05:49.863Z,31.70
2022-08-27T12:08:22.763Z,31.80
2022-08-27T12:11:25.442Z,32.00
2022-08-27T12:14:04.402Z,32.20
2022-08-27T12:16:46.987Z,32.40
2022-08-27T12:19:49.225Z,32.50
2022-08-27T12:23:05.856Z,32.60
2022-08-27T12:25:32.937Z,32.60
2022-08-27T12:28:09.523Z,32.50
2022-08-27T12:30:49.288Z,32.40
2022-08-27T12:33:44.312Z,32.30
2022-08-27T12:36:28.033Z,32.10
2022-08-27T12:38:59.197Z,32.00
2022-08-27T12:41:44.111Z,31.90
2022-08-27T12:44:27.274Z,31.80
2022-08-27T12:47:12.107Z,31.70
2022-08-27T12:50:00.121Z,31.70
2022-08-27T12:52:50.631Z,31.60
2022-08-27T12:55:33.931Z,31.50
2022-08-27T12:58:20.319Z,31.50
2022-08-27T13:01:36.269Z,31.50
2022-08-27T13:04:22.079Z,31.60
2022-08-27T13:06:49.767Z,31.80
2022-08-27T13:09:28.987Z,31.80
2022-08-27T13:11:57.134Z,32.00
2022-08-27T13:14:26.988Z,32.20
2022-08-27T13:17:03.727Z,32.20
2022-08-27T13:19:33.229Z,32.40
2022-08-27T13:22:05.240Z,32.50
2022-08-27T13:24:46.724Z,32.60
2022-08-27T13:27:15.086Z,32.60
2022-08-27T13:29:43.436Z,32.70
2022-08-27T13:32:14.488Z,32.60
2022-08-27T13:34:41.960Z,32.50
2022-08-27T13:37:31.831Z,32.50
2022-08-27T13:39:59.187Z,32.60
2022-08-27T13:42:27.464Z,32.30
2022-08-27T13:45:01.589Z,32.10
2022-08-27T13:47:30.823Z,32.00
2022-08-27T13:50:21.321Z,31.90
2022-08-27T13:53:12.997Z,31.70
2022-08-27T13:55:46.263Z,31.70
2022-08-27T13:58:28.011Z,31.60
2022-08-27T14:01:06.478Z,31.50
2022-08-27T14:03:39.300Z,31.60
2022-08-27T14:06:07.180Z,31.60
2022-08-27T14:08:38.823Z,31.60
2022-08-27T14:11:10.666Z,31.60
2022-08-27T14:13:45.918Z,31.50
2022-08-27T14:16:34.366Z,31.70
2022-08-27T14:19:25.742Z,31.70
2022-08-27T14:21:52.765Z,31.90
2022-08-27T14:24:19.860Z,31.70
2022-08-27T14:26:55.388Z,32.00
2022-08-27T14:29:22.464Z,31.90
2022-08-27T14:31:49.439Z,31.90
2022-08-27T14:34:16.767Z,31.80
2022-08-27T14:36:44.576Z,31.80
2022-08-27T14:39:12.134Z,31.60
2022-08-27T14:41:39.433Z,31.60
2022-08-27T14:44:07.172Z,31.50
2022-08-27T14:46:41.375Z,31.40
2022-08-27T14:49:25.078Z,31.20
2022-08-27T14:51:52.495Z,31.20
2022-08-27T14:54:19.482Z,31.00
2022-08-27T14:56:46.447Z,30.90
2022-08-27T14:59:13.864Z,30.80
2022-08-27T15:01:40.924Z,30.70
2022-08-27T15:04:08.244Z,30.60
2022-08-27T15:06:35.457Z,30.50
2022-08-27T15:09:02.427Z,30.40
2022-08-27T15:11:32.673Z,30.30
2022-08-27T15:14:01.913Z,30.10
2022-08-27T15:16:32.404Z,30.20
2022-08-27T15:19:01.482Z,30.10
2022-08-27T15:21:30.654Z,30.00
2022-08-27T15:24:05.460Z,29.90
2022-08-27T15:26:34.925Z,29.90
2022-08-27T15:29:06.420Z,29.70
2022-08-27T15:31:34.883Z,29.70
2022-08-27T15:34:01.917Z,29.60
2022-08-27T15:36:28.918Z,29.60
2022-08-27T15:38:56.337Z,29.50
2022-08-27T15:41:27.215Z,29.40
2022-08-27T15:43:56.454Z,29.30
2022-08-27T15:46:25.518Z,29.30
2022-08-27T15:48:53.346Z,29.20
2022-08-27T15:51:32.628Z,29.20
2022-08-27T15:54:00.782Z,29.00
2022-08-27T15:56:32.529Z,29.00
2022-08-27T15:59:01.729Z,29.00
2022-08-27T16:01:32.310Z,28.90
2022-08-27T16:04:00.497Z,28.80
2022-08-27T16:06:27.696Z,28.70
2022-08-27T16:08:54.801Z,28.70
2022-08-27T16:11:22.800Z,28.60
2022-08-27T16:13:51.178Z,28.70
2022-08-27T16:16:26.283Z,28.50
2022-08-27T16:18:53.564Z,28.40
2022-08-27T16:21:20.534Z,28.40
2022-08-27T16:23:47.960Z,28.40
2022-08-27T16:26:16.651Z,28.30
2022-08-27T16:28:44.624Z,28.20
2022-08-27T16:31:13.743Z,28.20
2022-08-27T16:33:42.711Z,28.00
2022-08-27T16:36:10.477Z,28.20
2022-08-27T16:38:38.059Z,28.10
2022-08-27T16:41:05.898Z,28.00
2022-08-27T16:43:33.098Z,28.00
2022-08-27T16:46:01.769Z,27.90
2022-08-27T16:48:47.607Z,27.90
2022-08-27T16:51:27.476Z,27.80
2022-08-27T16:53:54.477Z,27.80
2022-08-27T16:56:21.573Z,27.80
2022-08-27T16:58:56.486Z,27.70
2022-08-27T17:01:24.005Z,27.60
2022-08-27T17:04:13.375Z,27.60
2022-08-27T17:06:51.412Z,27.50
2022-08-27T17:09:19.367Z,27.50
2022-08-27T17:11:57.284Z,27.50
2022-08-27T17:14:24.937Z,27.40
2022-08-27T17:16:54.078Z,27.40
2022-08-27T17:19:24.288Z,27.30
2022-08-27T17:21:54.071Z,27.20
2022-08-27T17:24:20.996Z,27.20
2022-08-27T17:26:48.213Z,27.10
2022-08-27T17:29:15.165Z,27.10
2022-08-27T17:31:43.727Z,27.10
2022-08-27T17:34:21.306Z,26.90
2022-08-27T17:36:48.441Z,26.80
2022-08-27T17:39:15.890Z,26.80
2022-08-27T17:41:46.431Z,26.80
2022-08-27T17:44:35.229Z,26.70
2022-08-27T17:47:07.145Z,26.60
2022-08-27T17:49:34.952Z,26.50
2022-08-27T17:52:09.617Z,26.50
2022-08-27T17:54:46.675Z,26.40
2022-08-27T17:57:23.987Z,26.40
2022-08-27T17:59:53.308Z,26.30
2022-08-27T18:02:32.446Z,26.30
2022-08-27T18:04:59.988Z,26.20
2022-08-27T18:07:27.819Z,26.10
2022-08-27T18:09:55.836Z,26.10
2022-08-27T18:12:26.039Z,26.20
2022-08-27T18:15:08.170Z,26.00
2022-08-27T18:17:36.756Z,26.00
2022-08-27T18:20:08.176Z,25.90
2022-08-27T18:22:40.976Z,25.90
2022-08-27T18:25:26.680Z,25.90
2022-08-27T18:28:02.751Z,25.80
2022-08-27T18:30:31.461Z,25.80
2022-08-27T18:32:59.933Z,25.70
2022-08-27T18:35:30.924Z,25.70
2022-08-27T18:37:58.682Z,25.60
2022-08-27T18:40:29.914Z,25.60
2022-08-27T18:42:58.288Z,25.70
2022-08-27T18:45:28.711Z,25.50
2022-08-27T18:47:58.349Z,25.50
2022-08-27T18:50:26.060Z,25.50
2022-08-27T18:52:55.637Z,25.40
2022-08-27T18:55:28.044Z,25.40
2022-08-27T18:57:55.339Z,25.40
2022-08-27T19:00:22.846Z,25.40
2022-08-27T19:02:52.698Z,25.30
2022-08-27T19:05:28.058Z,25.30
2022-08-27T19:07:58.255Z,25.30
2022-08-27T19:10:26.561Z,25.20
2022-08-27T19:12:54.819Z,25.20
2022-08-27T19:15:22.225Z,25.00
2022-08-27T19:17:53.918Z,25.10
2022-08-27T19:20:21.477Z,25.10
2022-08-27T19:22:49.130Z,25.00
2022-08-27T19:25:17.038Z,25.00
2022-08-27T19:27:45.144Z,25.00
2022-08-27T19:30:13.956Z,25.00
2022-08-27T19:32:41.036Z,24.90
2022-08-27T19:35:08.965Z,24.80
2022-08-27T19:37:43.133Z,24.80
2022-08-27T19:40:11.695Z,24.80
2022-08-27T19:42:39.428Z,24.80
2022-08-27T19:45:07.941Z,24.70
2022-08-27T19:47:36.552Z,24.70
2022-08-27T19:50:04.077Z,24.70
2022-08-27T19:52:31.106Z,24.60
2022-08-27T19:55:13.013Z,24.60
2022-08-27T19:57:42.633Z,24.80
2022-08-27T20:00:12.579Z,24.30
2022-08-27T20:02:40.403Z,24.60
2022-08-27T20:05:17.856Z,24.50
2022-08-27T20:07:47.427Z,24.50
2022-08-27T20:10:16.291Z,24.50
2022-08-27T20:12:44.125Z,24.50
2022-08-27T20:15:12.019Z,24.50
2022-08-27T20:17:40.100Z,24.40
2022-08-27T20:20:09.037Z,24.40
2022-08-27T20:22:36.463Z,24.40
2022-08-27T20:25:03.629Z,24.40
2022-08-27T20:27:30.773Z,24.40
2022-08-27T20:29:58.215Z,24.40
2022-08-27T20:32:29.867Z,24.40
2022-08-27T20:34:59.046Z,24.30
2022-08-27T20:37:26.110Z,24.40
2022-08-27T20:39:53.682Z,24.40
2022-08-27T20:42:20.838Z,24.20
2022-08-27T20:44:49.147Z,24.30
2022-08-27T20:47:17.728Z,24.20
2022-08-27T20:49:44.870Z,24.30
2022-08-27T20:52:13.170Z,24.40
2022-08-27T20:54:40.759Z,24.30
2022-08-27T20:57:08.874Z,24.50
2022-08-27T20:59:54.957Z,24.30
2022-08-27T21:02:26.084Z,24.30
2022-08-27T21:04:54.161Z,24.30
2022-08-27T21:07:22.408Z,24.10
2022-08-27T21:09:55.908Z,24.30
2022-08-27T21:12:29.679Z,24.30
2022-08-27T21:14:57.978Z,24.30
2022-08-27T21:17:27.665Z,24.50
2022-08-27T21:19:55.261Z,24.30
2022-08-27T21:22:24.232Z,24.30
2022-08-27T21:24:52.238Z,24.50
2022-08-27T21:27:21.320Z,24.40
2022-08-27T21:29:49.193Z,24.30
2022-08-27T21:32:16.641Z,24.30
2022-08-27T21:34:43.886Z,24.30
2022-08-27T21:37:13.565Z,24.30
2022-08-27T21:39:42.295Z,24.30
2022-08-27T21:42:10.900Z,24.30
2022-08-27T21:44:38.124Z,24.30
2022-08-27T21:47:05.957Z,24.30
2022-08-27T21:49:33.726Z,24.30
2022-08-27T21:52:04.073Z,24.10
2022-08-27T21:54:34.195Z,24.20
2022-08-27T21:57:02.999Z,24.20
2022-08-27T21:59:31.568Z,24.20
2022-08-27T22:02:00.972Z,24.20
2022-08-27T22:04:30.909Z,24.20
2022-08-27T22:06:59.674Z,24.20
2022-08-27T22:09:28.105Z,24.20
2022-08-27T22:11:55.476Z,24.20
2022-08-27T22:14:22.440Z,24.20
2022-08-27T22:16:49.862Z,24.20
2022-08-27T22:19:17.484Z,24.20
2022-08-27T22:21:44.926Z,24.20
2022-08-27T22:24:12.524Z,24.20
2022-08-27T22:26:39.343Z,24.20
2022-08-27T22:29:07.397Z,24.20
2022-08-27T22:31:34.675Z,24.20
2022-08-27T22:34:02.319Z,24.20
2022-08-27T22:36:29.403Z,24.20
2022-08-27T22:38:59.810Z,24.20
2022-08-27T22:41:32.612Z,24.20
2022-08-27T22:44:00.325Z,24.10
2022-08-27T22:46:28.011Z,24.10
2022-08-27T22:48:55.031Z,24.10
2022-08-27T22:51:22.315Z,24.00
2022-08-27T22:53:49.240Z,24.10
2022-08-27T22:56:16.357Z,24.00
2022-08-27T22:58:45.769Z,24.00
2022-08-27T23:01:19.522Z,24.00
2022-08-27T23:03:46.681Z,23.90
2022-08-27T23:06:13.777Z,23.90
2022-08-27T23:08:40.815Z,23.90
2022-08-27T23:11:07.804Z,23.90
2022-08-27T23:13:35.128Z,23.90
2022-08-27T23:16:03.331Z,23.80
2022-08-27T23:18:30.431Z,23.80
2022-08-27T23:20:57.817Z,23.80
2022-08-27T23:23:27.609Z,23.80
2022-08-27T23:26:17.925Z,23.70
2022-08-27T23:28:45.528Z,23.70
2022-08-27T23:31:12.943Z,23.70
2022-08-27T23:33:40.875Z,23.70
2022-08-27T23:36:08.322Z,23.70
2022-08-27T23:38:35.341Z,23.60
2022-08-27T23:41:02.414Z,23.60
2022-08-27T23:43:30.281Z,23.60
2022-08-27T23:45:57.368Z,23.60
2022-08-27T23:48:24.623Z,23.60
2022-08-27T23:50:52.037Z,23.70
2022-08-27T23:53:18.987Z,23.70
2022-08-27T23:55:46.323Z,23.60
2022-08-27T23:58:13.460Z,23.50
